This is the latest recevied weather packets stored in our database for station/object LEAS. If no packets are shown the sender has not sent any weather packets the latest 10 day(s).
| Time | Temp. | Humidity | Pressure | Rain* | Wind** | Luminosity | Snow |
|---|---|---|---|---|---|---|---|
| 1787695204 | 18.89° C | 100% | 1014 hPa | - | - | - | - |
| 1787688904 | 18.89° C | 100% | 1014 hPa | - | - | - | - |
| 1787688003 | 20° C | 93% | 1014 hPa | - | - | - | - |
| 1787687103 | 20° C | 93% | 1014 hPa | - | - | - | - |
| 1787685303 | 20° C | 88% | 1013 hPa | - | - | - | - |
| 1787679004 | 20° C | 88% | 1013 hPa | - | - | - | - |
| 1787676303 | 20° C | 88% | 1013 hPa | - | - | - | - |
| 1787673603 | 21.11° C | 82% | 1013 hPa | - | - | - | - |
| 1787670904 | 22.78° C | 68% | 1013 hPa | - | - | - | - |
| 1787669103 | 22.78° C | 68% | 1013 hPa | - | - | - | - |
| 1787668204 | 22.22° C | 73% | 1013 hPa | - | - | - | - |
| 1787665503 | 22.22° C | 73% | 1013 hPa | - | - | - | - |
| 1787662803 | 22.22° C | 73% | 1013 hPa | - | - | - | - |
| 1787661003 | 22.22° C | 78% | 1013 hPa | - | - | - | - |
| 1787660103 | 22.22° C | 78% | 1013 hPa | - | - | - | - |
| 1787656503 | 22.78° C | 68% | 1013 hPa | - | - | - | - |
| 1787655603 | 22.22° C | 73% | 1013 hPa | - | - | - | - |
| 1787654703 | 22.22° C | 73% | 1013 hPa | - | - | - | - |
| 1787652903 | 21.11° C | 82% | 1013 hPa | - | - | - | - |
| 1787652003 | 21.11° C | 77% | 1013 hPa | - | - | - | - |
| 1787651103 | 21.11° C | 77% | 1013 hPa | - | - | - | - |
| 1787649303 | 21.11° C | 82% | 1013 hPa | - | - | - | - |
| 1787647503 | 21.11° C | 82% | 1013 hPa | - | - | - | - |
| 1787644803 | 20° C | 88% | 1012 hPa | - | - | - | - |
| 1787643903 | 20° C | 88% | 1012 hPa | - | - | - | - |
* Rain since midnight (hover to see other rain measurements)
** Current wind speed in m/s (hover to see current wind gust speed)